Time;durP1;ratioP1;P1;durP2;ratioP2;P2;SDS_P1;SDS_P2;PMS_P1;PMS_P2;Temp;Humidity;BMP_temperature;BMP_pressure;BME280_temperature;BME280_humidity;BME280_pressure;Samples;Min_cycle;Max_cycle;Signal;HPM_P1;HPM_P2
2021/03/22 00:00:02;;;;;;;15.15;10.05;;;;;;;1.14;96.49316;95297.78;;;;
2021/03/22 00:01:09;;;;;;;15.15;10.05;;;;;;;1.14;96.49316;95297.78;;;;
2021/03/22 00:02:13;;;;;;;15.15;10.05;;;;;;;1.14;96.49316;95297.78;;;;
2021/03/22 00:03:14;;;;;;;15.15;10.05;;;;;;;1.14;96.49316;95297.78;;;;
2021/03/22 00:04:17;;;;;;;15.15;10.05;;;;;;;1.14;96.49316;95297.78;;;;
2021/03/22 00:05:17;;;;;;;15.45;9.650002;;;;;;;1.19;96.71387;95290.09;;;;
2021/03/22 00:06:19;;;;;;;15.45;9.650002;;;;;;;1.19;96.71387;95290.09;;;;
2021/03/22 00:07:20;;;;;;;15.45;9.650002;;;;;;;1.19;96.71387;95290.09;;;;
2021/03/22 00:08:20;;;;;;;15.45;9.650002;;;;;;;1.19;96.71387;95290.09;;;;
2021/03/22 00:09:22;;;;;;;15.45;9.650002;;;;;;;1.19;96.71387;95290.09;;;;
2021/03/22 00:10:23;;;;;;;15.45;9.650002;;;;;;;1.19;96.71387;95290.09;;;;
2021/03/22 00:11:28;;;;;;;15.45;9.650002;;;;;;;1.19;96.71387;95290.09;;;;
2021/03/22 00:12:28;;;;;;;15.45;9.650002;;;;;;;1.19;96.71387;95290.09;;;;
2021/03/22 00:13:29;;;;;;;15.45;9.650002;;;;;;;1.19;96.71387;95290.09;;;;
2021/03/22 00:14:29;;;;;;;15.45;9.650002;;;;;;;1.19;96.71387;95290.09;;;;
2021/03/22 00:15:30;;;;;;;14.55;9.300001;;;;;;;1.2;96.72656;95283.37;;;;
2021/03/22 00:16:33;;;;;;;14.55;9.300001;;;;;;;1.2;96.72656;95283.37;;;;
2021/03/22 00:17:34;;;;;;;14.55;9.300001;;;;;;;1.2;96.72656;95283.37;;;;
2021/03/22 00:18:34;;;;;;;14.55;9.300001;;;;;;;1.2;96.72656;95283.37;;;;
2021/03/22 00:19:38;;;;;;;14.55;9.300001;;;;;;;1.2;96.72656;95283.37;;;;
2021/03/22 00:20:38;;;;;;;14.55;9.300001;;;;;;;1.2;96.72656;95283.37;;;;
2021/03/22 00:21:39;;;;;;;14.55;9.300001;;;;;;;1.2;96.72656;95283.37;;;;
2021/03/22 00:22:40;;;;;;;14.55;9.300001;;;;;;;1.2;96.72656;95283.37;;;;
2021/03/22 00:23:41;;;;;;;14.55;9.300001;;;;;;;1.2;96.72656;95283.37;;;;
2021/03/22 00:24:41;;;;;;;14.55;9.300001;;;;;;;1.2;96.72656;95283.37;;;;
2021/03/22 00:25:42;;;;;;;14.55;9.300001;;;;;;;1.2;96.72656;95283.37;;;;
2021/03/22 00:26:43;;;;;;;17.5;10.1;;;;;;;1.2;96.83008;95282.05;;;;
2021/03/22 00:27:43;;;;;;;17.5;10.1;;;;;;;1.2;96.83008;95282.05;;;;
2021/03/22 00:28:44;;;;;;;17.5;10.1;;;;;;;1.2;96.83008;95282.05;;;;
2021/03/22 00:29:45;;;;;;;17.5;10.1;;;;;;;1.2;96.83008;95282.05;;;;
2021/03/22 00:30:45;;;;;;;17.5;10.1;;;;;;;1.2;96.83008;95282.05;;;;
2021/03/22 00:31:48;;;;;;;17.5;10.1;;;;;;;1.2;96.83008;95282.05;;;;
2021/03/22 00:32:48;;;;;;;17.5;10.1;;;;;;;1.2;96.83008;95282.05;;;;
2021/03/22 00:33:49;;;;;;;17.5;10.1;;;;;;;1.2;96.83008;95282.05;;;;
2021/03/22 00:34:49;;;;;;;17.5;10.1;;;;;;;1.2;96.83008;95282.05;;;;
2021/03/22 00:35:50;;;;;;;17.5;10.1;;;;;;;1.2;96.83008;95282.05;;;;
2021/03/22 00:36:51;;;;;;;15.45;9.349998;;;;;;;1.21;97.11328;95272.97;;;;
2021/03/22 00:37:53;;;;;;;15.45;9.349998;;;;;;;1.21;97.11328;95272.97;;;;
2021/03/22 00:38:54;;;;;;;15.45;9.349998;;;;;;;1.21;97.11328;95272.97;;;;
2021/03/22 00:39:55;;;;;;;15.45;9.349998;;;;;;;1.21;97.11328;95272.97;;;;
2021/03/22 00:40:56;;;;;;;15.45;9.349998;;;;;;;1.21;97.11328;95272.97;;;;
2021/03/22 00:41:56;;;;;;;15.45;9.349998;;;;;;;1.21;97.11328;95272.97;;;;
2021/03/22 00:42:57;;;;;;;15.45;9.349998;;;;;;;1.21;97.11328;95272.97;;;;
2021/03/22 00:43:58;;;;;;;15.45;9.349998;;;;;;;1.21;97.11328;95272.97;;;;
2021/03/22 00:44:58;;;;;;;15.45;9.349998;;;;;;;1.21;97.11328;95272.97;;;;
2021/03/22 00:45:58;;;;;;;15.45;9.349998;;;;;;;1.21;97.11328;95272.97;;;;
2021/03/22 00:47:01;;;;;;;15.45;9.349998;;;;;;;1.21;97.11328;95272.97;;;;
2021/03/22 00:48:02;;;;;;;15.25;9.5;;;;;;;1.26;97.29297;95277.24;;;;
2021/03/22 00:49:04;;;;;;;15.25;9.5;;;;;;;1.26;97.29297;95277.24;;;;
2021/03/22 00:50:05;;;;;;;15.25;9.5;;;;;;;1.26;97.29297;95277.24;;;;
2021/03/22 00:51:08;;;;;;;15.25;9.5;;;;;;;1.26;97.29297;95277.24;;;;
2021/03/22 00:52:11;;;;;;;15.25;9.5;;;;;;;1.26;97.29297;95277.24;;;;
2021/03/22 00:53:11;;;;;;;15.25;9.5;;;;;;;1.26;97.29297;95277.24;;;;
2021/03/22 00:54:15;;;;;;;15.25;9.5;;;;;;;1.26;97.29297;95277.24;;;;
2021/03/22 00:55:16;;;;;;;15.25;9.5;;;;;;;1.26;97.29297;95277.24;;;;
2021/03/22 00:56:17;;;;;;;15.25;9.5;;;;;;;1.26;97.29297;95277.24;;;;
2021/03/22 00:57:18;;;;;;;15.25;9.5;;;;;;;1.26;97.29297;95277.24;;;;
2021/03/22 00:58:18;;;;;;;15.65;9.75;;;;;;;1.28;97.41895;95249.14;;;;
2021/03/22 00:59:19;;;;;;;15.65;9.75;;;;;;;1.28;97.41895;95249.14;;;;
2021/03/22 01:00:20;;;;;;;15.65;9.75;;;;;;;1.28;97.41895;95249.14;;;;
2021/03/22 01:01:26;;;;;;;15.65;9.75;;;;;;;1.28;97.41895;95249.14;;;;
2021/03/22 01:02:26;;;;;;;15.65;9.75;;;;;;;1.28;97.41895;95249.14;;;;
2021/03/22 01:03:27;;;;;;;15.65;9.75;;;;;;;1.28;97.41895;95249.14;;;;
2021/03/22 01:04:30;;;;;;;15.65;9.75;;;;;;;1.28;97.41895;95249.14;;;;
2021/03/22 01:05:30;;;;;;;15.65;9.75;;;;;;;1.28;97.41895;95249.14;;;;
2021/03/22 01:06:31;;;;;;;15.65;9.75;;;;;;;1.28;97.41895;95249.14;;;;
2021/03/22 01:07:32;;;;;;;15.65;9.75;;;;;;;1.28;97.41895;95249.14;;;;
2021/03/22 01:08:32;;;;;;;15.65;9.75;;;;;;;1.28;97.41895;95249.14;;;;
2021/03/22 01:09:35;;;;;;;17.6;10.5;;;;;;;1.26;97.60449;95240.92;;;;
2021/03/22 01:10:36;;;;;;;17.6;10.5;;;;;;;1.26;97.60449;95240.92;;;;
2021/03/22 01:11:40;;;;;;;17.6;10.5;;;;;;;1.26;97.60449;95240.92;;;;
2021/03/22 01:12:41;;;;;;;17.6;10.5;;;;;;;1.26;97.60449;95240.92;;;;
2021/03/22 01:13:42;;;;;;;17.6;10.5;;;;;;;1.26;97.60449;95240.92;;;;
2021/03/22 01:14:45;;;;;;;17.6;10.5;;;;;;;1.26;97.60449;95240.92;;;;
2021/03/22 01:15:45;;;;;;;17.6;10.5;;;;;;;1.26;97.60449;95240.92;;;;
2021/03/22 01:16:47;;;;;;;17.6;10.5;;;;;;;1.26;97.60449;95240.92;;;;
2021/03/22 01:17:48;;;;;;;17.6;10.5;;;;;;;1.26;97.60449;95240.92;;;;
2021/03/22 01:18:50;;;;;;;17.6;10.5;;;;;;;1.26;97.60449;95240.92;;;;
2021/03/22 01:19:53;;;;;;;16.5;10.15;;;;;;;1.24;97.80762;95243.35;;;;
2021/03/22 01:20:53;;;;;;;16.5;10.15;;;;;;;1.24;97.80762;95243.35;;;;
2021/03/22 01:22:01;;;;;;;16.5;10.15;;;;;;;1.24;97.80762;95243.35;;;;
2021/03/22 01:23:03;;;;;;;16.5;10.15;;;;;;;1.24;97.80762;95243.35;;;;
2021/03/22 01:24:03;;;;;;;16.5;10.15;;;;;;;1.24;97.80762;95243.35;;;;
2021/03/22 01:25:07;;;;;;;16.5;10.15;;;;;;;1.24;97.80762;95243.35;;;;
2021/03/22 01:26:10;;;;;;;16.5;10.15;;;;;;;1.24;97.80762;95243.35;;;;
2021/03/22 01:27:14;;;;;;;16.5;10.15;;;;;;;1.24;97.80762;95243.35;;;;
2021/03/22 01:28:14;;;;;;;16.5;10.15;;;;;;;1.24;97.80762;95243.35;;;;
2021/03/22 01:29:17;;;;;;;16.5;10.15;;;;;;;1.24;97.80762;95243.35;;;;
2021/03/22 01:30:23;;;;;;;15.35;10.1;;;;;;;1.25;98.15137;95243.28;;;;
2021/03/22 01:31:27;;;;;;;15.35;10.1;;;;;;;1.25;98.15137;95243.28;;;;
2021/03/22 01:32:27;;;;;;;15.35;10.1;;;;;;;1.25;98.15137;95243.28;;;;
2021/03/22 01:33:29;;;;;;;15.35;10.1;;;;;;;1.25;98.15137;95243.28;;;;
2021/03/22 01:34:31;;;;;;;15.35;10.1;;;;;;;1.25;98.15137;95243.28;;;;
2021/03/22 01:35:31;;;;;;;15.35;10.1;;;;;;;1.25;98.15137;95243.28;;;;
2021/03/22 01:36:32;;;;;;;15.35;10.1;;;;;;;1.25;98.15137;95243.28;;;;
2021/03/22 01:37:34;;;;;;;15.35;10.1;;;;;;;1.25;98.15137;95243.28;;;;
2021/03/22 01:38:34;;;;;;;15.35;10.1;;;;;;;1.25;98.15137;95243.28;;;;
2021/03/22 01:39:35;;;;;;;15.35;10.1;;;;;;;1.25;98.15137;95243.28;;;;
2021/03/22 01:40:38;;;;;;;15.35;10.1;;;;;;;1.25;98.15137;95243.28;;;;
2021/03/22 01:41:54;;;;;;;17.7;10.55;;;;;;;1.21;98.23633;95237.08;;;;
2021/03/22 01:43:07;;;;;;;17.7;10.55;;;;;;;1.21;98.23633;95237.08;;;;
2021/03/22 01:44:16;;;;;;;17.7;10.55;;;;;;;1.21;98.23633;95237.08;;;;
2021/03/22 01:45:21;;;;;;;17.7;10.55;;;;;;;1.21;98.23633;95237.08;;;;
2021/03/22 01:46:22;;;;;;;17.7;10.55;;;;;;;1.21;98.23633;95237.08;;;;
2021/03/22 01:47:23;;;;;;;17.7;10.55;;;;;;;1.21;98.23633;95237.08;;;;
2021/03/22 01:48:27;;;;;;;17.7;10.55;;;;;;;1.21;98.23633;95237.08;;;;
2021/03/22 01:49:28;;;;;;;17.7;10.55;;;;;;;1.21;98.23633;95237.08;;;;
2021/03/22 01:50:36;;;;;;;17.7;10.55;;;;;;;1.21;98.23633;95237.08;;;;
2021/03/22 01:51:37;;;;;;;17.75;11;;;;;;;1.24;98.73047;95226.59;;;;
2021/03/22 01:52:38;;;;;;;17.75;11;;;;;;;1.24;98.73047;95226.59;;;;
2021/03/22 01:53:41;;;;;;;17.75;11;;;;;;;1.24;98.73047;95226.59;;;;
2021/03/22 01:54:43;;;;;;;17.75;11;;;;;;;1.24;98.73047;95226.59;;;;
2021/03/22 01:55:44;;;;;;;17.75;11;;;;;;;1.24;98.73047;95226.59;;;;
2021/03/22 01:56:45;;;;;;;17.75;11;;;;;;;1.24;98.73047;95226.59;;;;
2021/03/22 01:57:48;;;;;;;17.75;11;;;;;;;1.24;98.73047;95226.59;;;;
2021/03/22 01:58:49;;;;;;;17.75;11;;;;;;;1.24;98.73047;95226.59;;;;
2021/03/22 01:59:51;;;;;;;17.75;11;;;;;;;1.24;98.73047;95226.59;;;;
2021/03/22 02:00:54;;;;;;;17.75;11;;;;;;;1.24;98.73047;95226.59;;;;
2021/03/22 02:01:54;;;;;;;17.75;11;;;;;;;1.24;98.73047;95226.59;;;;
2021/03/22 02:03:01;;;;;;;18.8;11.15;;;;;;;1.19;98.80078;95221.91;;;;
2021/03/22 02:04:05;;;;;;;18.8;11.15;;;;;;;1.19;98.80078;95221.91;;;;
2021/03/22 02:05:05;;;;;;;18.8;11.15;;;;;;;1.19;98.80078;95221.91;;;;
2021/03/22 02:06:11;;;;;;;18.8;11.15;;;;;;;1.19;98.80078;95221.91;;;;
2021/03/22 02:07:12;;;;;;;18.8;11.15;;;;;;;1.19;98.80078;95221.91;;;;
2021/03/22 02:08:13;;;;;;;18.8;11.15;;;;;;;1.19;98.80078;95221.91;;;;
2021/03/22 02:09:16;;;;;;;18.8;11.15;;;;;;;1.19;98.80078;95221.91;;;;
2021/03/22 02:10:16;;;;;;;18.8;11.15;;;;;;;1.19;98.80078;95221.91;;;;
2021/03/22 02:11:17;;;;;;;18.8;11.15;;;;;;;1.19;98.80078;95221.91;;;;
2021/03/22 02:12:20;;;;;;;18.8;11.15;;;;;;;1.19;98.80078;95221.91;;;;
2021/03/22 02:13:21;;;;;;;19.75;11.45;;;;;;;1.22;99.44531;95216.11;;;;
2021/03/22 02:14:25;;;;;;;19.75;11.45;;;;;;;1.22;99.44531;95216.11;;;;
2021/03/22 02:15:26;;;;;;;19.75;11.45;;;;;;;1.22;99.44531;95216.11;;;;
2021/03/22 02:16:27;;;;;;;19.75;11.45;;;;;;;1.22;99.44531;95216.11;;;;
2021/03/22 02:17:39;;;;;;;19.75;11.45;;;;;;;1.22;99.44531;95216.11;;;;
2021/03/22 02:18:51;;;;;;;19.75;11.45;;;;;;;1.22;99.44531;95216.11;;;;
2021/03/22 02:20:09;;;;;;;19.75;11.45;;;;;;;1.22;99.44531;95216.11;;;;
2021/03/22 02:21:51;;;;;;;19.75;11.45;;;;;;;1.22;99.44531;95216.11;;;;
2021/03/22 02:23:14;;;;;;;19.75;11.45;;;;;;;1.22;99.44531;95216.11;;;;
2021/03/22 02:24:40;;;;;;;17.3;10.2;;;;;;;1.28;99.46973;95222.96;;;;
2021/03/22 02:26:07;;;;;;;17.3;10.2;;;;;;;1.28;99.46973;95222.96;;;;
2021/03/22 02:27:28;;;;;;;17.3;10.2;;;;;;;1.28;99.46973;95222.96;;;;
2021/03/22 02:28:47;;;;;;;17.3;10.2;;;;;;;1.28;99.46973;95222.96;;;;
2021/03/22 02:30:04;;;;;;;17.3;10.2;;;;;;;1.28;99.46973;95222.96;;;;
2021/03/22 02:31:32;;;;;;;17.3;10.2;;;;;;;1.28;99.46973;95222.96;;;;
2021/03/22 02:32:51;;;;;;;17.3;10.2;;;;;;;1.28;99.46973;95222.96;;;;
2021/03/22 02:34:15;;;;;;;20.15;11.25;;;;;;;1.35;99.62207;95237.6;;;;
2021/03/22 02:35:24;;;;;;;20.15;11.25;;;;;;;1.35;99.62207;95237.6;;;;
2021/03/22 02:36:30;;;;;;;20.15;11.25;;;;;;;1.35;99.62207;95237.6;;;;
2021/03/22 02:37:42;;;;;;;20.15;11.25;;;;;;;1.35;99.62207;95237.6;;;;
2021/03/22 02:38:50;;;;;;;20.15;11.25;;;;;;;1.35;99.62207;95237.6;;;;
2021/03/22 02:39:54;;;;;;;20.15;11.25;;;;;;;1.35;99.62207;95237.6;;;;
2021/03/22 02:41:03;;;;;;;20.15;11.25;;;;;;;1.35;99.62207;95237.6;;;;
2021/03/22 02:42:09;;;;;;;20.15;11.25;;;;;;;1.35;99.62207;95237.6;;;;
2021/03/22 02:43:11;;;;;;;20.15;11.25;;;;;;;1.35;99.62207;95237.6;;;;
2021/03/22 02:44:12;;;;;;;20.15;11.25;;;;;;;1.35;99.62207;95237.6;;;;
2021/03/22 02:45:17;;;;;;;21.25;11.15;;;;;;;1.38;99.69922;95248.39;;;;
2021/03/22 02:46:21;;;;;;;21.25;11.15;;;;;;;1.38;99.69922;95248.39;;;;
2021/03/22 02:47:22;;;;;;;21.25;11.15;;;;;;;1.38;99.69922;95248.39;;;;
2021/03/22 02:48:27;;;;;;;21.25;11.15;;;;;;;1.38;99.69922;95248.39;;;;
2021/03/22 02:49:30;;;;;;;21.25;11.15;;;;;;;1.38;99.69922;95248.39;;;;
2021/03/22 02:50:34;;;;;;;21.25;11.15;;;;;;;1.38;99.69922;95248.39;;;;
2021/03/22 02:51:36;;;;;;;21.25;11.15;;;;;;;1.38;99.69922;95248.39;;;;
2021/03/22 02:52:52;;;;;;;21.25;11.15;;;;;;;1.38;99.69922;95248.39;;;;
2021/03/22 02:54:11;;;;;;;21.25;11.15;;;;;;;1.38;99.69922;95248.39;;;;
2021/03/22 02:55:18;;;;;;;21.25;11.15;;;;;;;1.38;99.69922;95248.39;;;;
2021/03/22 02:56:30;;;;;;;21.9;11.1;;;;;;;1.4;100;95252.51;;;;
2021/03/22 02:57:40;;;;;;;21.9;11.1;;;;;;;1.4;100;95252.51;;;;
2021/03/22 02:58:48;;;;;;;21.9;11.1;;;;;;;1.4;100;95252.51;;;;
2021/03/22 02:59:53;;;;;;;21.9;11.1;;;;;;;1.4;100;95252.51;;;;
2021/03/22 03:00:59;;;;;;;21.9;11.1;;;;;;;1.4;100;95252.51;;;;
2021/03/22 03:02:06;;;;;;;21.9;11.1;;;;;;;1.4;100;95252.51;;;;
2021/03/22 03:03:08;;;;;;;21.9;11.1;;;;;;;1.4;100;95252.51;;;;
2021/03/22 03:04:11;;;;;;;21.9;11.1;;;;;;;1.4;100;95252.51;;;;
2021/03/22 03:05:15;;;;;;;21.9;11.1;;;;;;;1.4;100;95252.51;;;;
2021/03/22 03:06:19;;;;;;;21.8;11.15;;;;;;;1.44;100;95255.14;;;;
2021/03/22 03:07:20;;;;;;;21.8;11.15;;;;;;;1.44;100;95255.14;;;;
2021/03/22 03:08:23;;;;;;;21.8;11.15;;;;;;;1.44;100;95255.14;;;;
2021/03/22 03:09:29;;;;;;;21.8;11.15;;;;;;;1.44;100;95255.14;;;;
2021/03/22 03:10:33;;;;;;;21.8;11.15;;;;;;;1.44;100;95255.14;;;;
2021/03/22 03:11:34;;;;;;;21.8;11.15;;;;;;;1.44;100;95255.14;;;;
2021/03/22 03:12:36;;;;;;;21.8;11.15;;;;;;;1.44;100;95255.14;;;;
2021/03/22 03:13:36;;;;;;;21.8;11.15;;;;;;;1.44;100;95255.14;;;;
2021/03/22 03:14:38;;;;;;;21.8;11.15;;;;;;;1.44;100;95255.14;;;;
2021/03/22 03:15:40;;;;;;;21.8;11.15;;;;;;;1.44;100;95255.14;;;;
2021/03/22 03:16:40;;;;;;;21.8;11.15;;;;;;;1.44;100;95255.14;;;;
2021/03/22 03:17:41;;;;;;;20.55;11.3;;;;;;;1.47;100;95277.48;;;;
2021/03/22 03:18:42;;;;;;;20.55;11.3;;;;;;;1.47;100;95277.48;;;;
2021/03/22 03:19:42;;;;;;;20.55;11.3;;;;;;;1.47;100;95277.48;;;;
2021/03/22 03:20:43;;;;;;;20.55;11.3;;;;;;;1.47;100;95277.48;;;;
2021/03/22 03:21:44;;;;;;;20.55;11.3;;;;;;;1.47;100;95277.48;;;;
2021/03/22 03:22:44;;;;;;;20.55;11.3;;;;;;;1.47;100;95277.48;;;;
2021/03/22 03:23:45;;;;;;;20.55;11.3;;;;;;;1.47;100;95277.48;;;;
2021/03/22 03:24:45;;;;;;;20.55;11.3;;;;;;;1.47;100;95277.48;;;;
2021/03/22 03:25:46;;;;;;;20.55;11.3;;;;;;;1.47;100;95277.48;;;;
2021/03/22 03:26:46;;;;;;;20.55;11.3;;;;;;;1.47;100;95277.48;;;;
2021/03/22 03:27:47;;;;;;;23.65;11.35;;;;;;;1.46;100;95281.16;;;;
2021/03/22 03:28:48;;;;;;;23.65;11.35;;;;;;;1.46;100;95281.16;;;;
2021/03/22 03:29:48;;;;;;;23.65;11.35;;;;;;;1.46;100;95281.16;;;;
2021/03/22 03:30:49;;;;;;;23.65;11.35;;;;;;;1.46;100;95281.16;;;;
2021/03/22 03:31:49;;;;;;;23.65;11.35;;;;;;;1.46;100;95281.16;;;;
2021/03/22 03:32:50;;;;;;;23.65;11.35;;;;;;;1.46;100;95281.16;;;;
2021/03/22 03:33:50;;;;;;;23.65;11.35;;;;;;;1.46;100;95281.16;;;;
2021/03/22 03:34:51;;;;;;;23.65;11.35;;;;;;;1.46;100;95281.16;;;;
2021/03/22 03:35:51;;;;;;;23.65;11.35;;;;;;;1.46;100;95281.16;;;;
2021/03/22 03:36:52;;;;;;;23.65;11.35;;;;;;;1.46;100;95281.16;;;;
2021/03/22 03:37:53;;;;;;;23.65;11.35;;;;;;;1.46;100;95281.16;;;;
2021/03/22 03:38:55;;;;;;;22.35;10.25;;;;;;;1.44;100;95287.16;;;;
2021/03/22 03:39:56;;;;;;;22.35;10.25;;;;;;;1.44;100;95287.16;;;;
2021/03/22 03:40:56;;;;;;;22.35;10.25;;;;;;;1.44;100;95287.16;;;;
2021/03/22 03:41:57;;;;;;;22.35;10.25;;;;;;;1.44;100;95287.16;;;;
2021/03/22 03:42:58;;;;;;;22.35;10.25;;;;;;;1.44;100;95287.16;;;;
2021/03/22 03:43:59;;;;;;;22.35;10.25;;;;;;;1.44;100;95287.16;;;;
2021/03/22 03:44:59;;;;;;;22.35;10.25;;;;;;;1.44;100;95287.16;;;;
2021/03/22 03:46:00;;;;;;;22.35;10.25;;;;;;;1.44;100;95287.16;;;;
2021/03/22 03:47:00;;;;;;;22.35;10.25;;;;;;;1.44;100;95287.16;;;;
2021/03/22 03:48:01;;;;;;;22.35;10.25;;;;;;;1.44;100;95287.16;;;;
2021/03/22 03:49:03;;;;;;;20.85;11.4;;;;;;;1.48;100;95280.45;;;;
2021/03/22 03:50:04;;;;;;;20.85;11.4;;;;;;;1.48;100;95280.45;;;;
2021/03/22 03:51:08;;;;;;;20.85;11.4;;;;;;;1.48;100;95280.45;;;;
2021/03/22 03:52:08;;;;;;;20.85;11.4;;;;;;;1.48;100;95280.45;;;;
2021/03/22 03:53:09;;;;;;;20.85;11.4;;;;;;;1.48;100;95280.45;;;;
2021/03/22 03:54:10;;;;;;;20.85;11.4;;;;;;;1.48;100;95280.45;;;;
2021/03/22 03:55:12;;;;;;;20.85;11.4;;;;;;;1.48;100;95280.45;;;;
2021/03/22 03:56:15;;;;;;;20.85;11.4;;;;;;;1.48;100;95280.45;;;;
2021/03/22 03:57:16;;;;;;;20.85;11.4;;;;;;;1.48;100;95280.45;;;;
2021/03/22 03:58:17;;;;;;;20.85;11.4;;;;;;;1.48;100;95280.45;;;;
2021/03/22 03:59:18;;;;;;;20.85;11.4;;;;;;;1.48;100;95280.45;;;;
2021/03/22 04:00:18;;;;;;;22.9;10.85;;;;;;;1.49;100;95278.97;;;;
2021/03/22 04:01:24;;;;;;;22.9;10.85;;;;;;;1.49;100;95278.97;;;;
2021/03/22 04:02:26;;;;;;;22.9;10.85;;;;;;;1.49;100;95278.97;;;;
2021/03/22 04:03:27;;;;;;;22.9;10.85;;;;;;;1.49;100;95278.97;;;;
2021/03/22 04:04:30;;;;;;;22.9;10.85;;;;;;;1.49;100;95278.97;;;;
2021/03/22 04:05:30;;;;;;;22.9;10.85;;;;;;;1.49;100;95278.97;;;;
2021/03/22 04:06:31;;;;;;;22.9;10.85;;;;;;;1.49;100;95278.97;;;;
2021/03/22 04:07:33;;;;;;;22.9;10.85;;;;;;;1.49;100;95278.97;;;;
2021/03/22 04:08:34;;;;;;;22.9;10.85;;;;;;;1.49;100;95278.97;;;;
2021/03/22 04:09:38;;;;;;;22.9;10.85;;;;;;;1.49;100;95278.97;;;;
2021/03/22 04:10:38;;;;;;;23.7;11.95;;;;;;;1.48;100;95278.2;;;;
2021/03/22 04:11:39;;;;;;;23.7;11.95;;;;;;;1.48;100;95278.2;;;;
2021/03/22 04:12:42;;;;;;;23.7;11.95;;;;;;;1.48;100;95278.2;;;;
2021/03/22 04:13:43;;;;;;;23.7;11.95;;;;;;;1.48;100;95278.2;;;;
2021/03/22 04:14:44;;;;;;;23.7;11.95;;;;;;;1.48;100;95278.2;;;;
2021/03/22 04:15:45;;;;;;;23.7;11.95;;;;;;;1.48;100;95278.2;;;;
2021/03/22 04:16:46;;;;;;;23.7;11.95;;;;;;;1.48;100;95278.2;;;;
2021/03/22 04:17:47;;;;;;;23.7;11.95;;;;;;;1.48;100;95278.2;;;;
2021/03/22 04:18:47;;;;;;;23.7;11.95;;;;;;;1.48;100;95278.2;;;;
2021/03/22 04:19:48;;;;;;;23.7;11.95;;;;;;;1.48;100;95278.2;;;;
2021/03/22 04:20:49;;;;;;;20.35;11.55;;;;;;;1.47;100;95280.56;;;;
2021/03/22 04:21:50;;;;;;;20.35;11.55;;;;;;;1.47;100;95280.56;;;;
2021/03/22 04:22:51;;;;;;;20.35;11.55;;;;;;;1.47;100;95280.56;;;;
2021/03/22 04:23:52;;;;;;;20.35;11.55;;;;;;;1.47;100;95280.56;;;;
2021/03/22 04:24:54;;;;;;;20.35;11.55;;;;;;;1.47;100;95280.56;;;;
2021/03/22 04:25:54;;;;;;;20.35;11.55;;;;;;;1.47;100;95280.56;;;;
2021/03/22 04:26:55;;;;;;;20.35;11.55;;;;;;;1.47;100;95280.56;;;;
2021/03/22 04:27:55;;;;;;;20.35;11.55;;;;;;;1.47;100;95280.56;;;;
2021/03/22 04:28:56;;;;;;;20.35;11.55;;;;;;;1.47;100;95280.56;;;;
2021/03/22 04:29:56;;;;;;;20.35;11.55;;;;;;;1.47;100;95280.56;;;;
2021/03/22 04:30:57;;;;;;;20.35;11.55;;;;;;;1.47;100;95280.56;;;;
2021/03/22 04:31:58;;;;;;;23.7;11.4;;;;;;;1.42;100;95301.14;;;;
2021/03/22 04:32:58;;;;;;;23.7;11.4;;;;;;;1.42;100;95301.14;;;;
2021/03/22 04:33:59;;;;;;;23.7;11.4;;;;;;;1.42;100;95301.14;;;;
2021/03/22 04:35:00;;;;;;;23.7;11.4;;;;;;;1.42;100;95301.14;;;;
2021/03/22 04:36:01;;;;;;;23.7;11.4;;;;;;;1.42;100;95301.14;;;;
2021/03/22 04:37:02;;;;;;;23.7;11.4;;;;;;;1.42;100;95301.14;;;;
2021/03/22 04:38:04;;;;;;;23.7;11.4;;;;;;;1.42;100;95301.14;;;;
2021/03/22 04:39:04;;;;;;;23.7;11.4;;;;;;;1.42;100;95301.14;;;;
2021/03/22 04:40:07;;;;;;;23.7;11.4;;;;;;;1.42;100;95301.14;;;;
2021/03/22 04:41:09;;;;;;;23.7;11.4;;;;;;;1.42;100;95301.14;;;;
2021/03/22 04:42:10;;;;;;;19;10.75;;;;;;;1.38;100;95295.78;;;;
2021/03/22 04:43:10;;;;;;;19;10.75;;;;;;;1.38;100;95295.78;;;;
2021/03/22 04:44:12;;;;;;;19;10.75;;;;;;;1.38;100;95295.78;;;;
2021/03/22 04:45:13;;;;;;;19;10.75;;;;;;;1.38;100;95295.78;;;;
2021/03/22 04:46:14;;;;;;;19;10.75;;;;;;;1.38;100;95295.78;;;;
2021/03/22 04:47:15;;;;;;;19;10.75;;;;;;;1.38;100;95295.78;;;;
2021/03/22 04:48:16;;;;;;;19;10.75;;;;;;;1.38;100;95295.78;;;;
2021/03/22 04:49:16;;;;;;;19;10.75;;;;;;;1.38;100;95295.78;;;;
2021/03/22 04:50:17;;;;;;;19;10.75;;;;;;;1.38;100;95295.78;;;;
2021/03/22 04:51:20;;;;;;;19;10.75;;;;;;;1.38;100;95295.78;;;;
2021/03/22 04:52:21;;;;;;;19;10.75;;;;;;;1.38;100;95295.78;;;;
2021/03/22 04:53:22;;;;;;;20.5;9.599999;;;;;;;1.37;100;95290.61;;;;
2021/03/22 04:54:22;;;;;;;20.5;9.599999;;;;;;;1.37;100;95290.61;;;;
2021/03/22 04:55:23;;;;;;;20.5;9.599999;;;;;;;1.37;100;95290.61;;;;
2021/03/22 04:56:26;;;;;;;20.5;9.599999;;;;;;;1.37;100;95290.61;;;;
2021/03/22 04:57:26;;;;;;;20.5;9.599999;;;;;;;1.37;100;95290.61;;;;
2021/03/22 04:58:29;;;;;;;20.5;9.599999;;;;;;;1.37;100;95290.61;;;;
2021/03/22 04:59:30;;;;;;;20.5;9.599999;;;;;;;1.37;100;95290.61;;;;
2021/03/22 05:00:31;;;;;;;20.5;9.599999;;;;;;;1.37;100;95290.61;;;;
2021/03/22 05:01:34;;;;;;;20.5;9.599999;;;;;;;1.37;100;95290.61;;;;
2021/03/22 05:02:35;;;;;;;20.5;9.599999;;;;;;;1.37;100;95290.61;;;;
2021/03/22 05:03:35;;;;;;;21.3;8.9;;;;;;;1.35;100;95296.64;;;;
2021/03/22 05:04:36;;;;;;;21.3;8.9;;;;;;;1.35;100;95296.64;;;;
2021/03/22 05:05:36;;;;;;;21.3;8.9;;;;;;;1.35;100;95296.64;;;;
2021/03/22 05:06:37;;;;;;;21.3;8.9;;;;;;;1.35;100;95296.64;;;;
2021/03/22 05:07:38;;;;;;;21.3;8.9;;;;;;;1.35;100;95296.64;;;;
2021/03/22 05:08:38;;;;;;;21.3;8.9;;;;;;;1.35;100;95296.64;;;;
2021/03/22 05:09:39;;;;;;;21.3;8.9;;;;;;;1.35;100;95296.64;;;;
2021/03/22 05:10:40;;;;;;;21.3;8.9;;;;;;;1.35;100;95296.64;;;;
2021/03/22 05:11:44;;;;;;;21.3;8.9;;;;;;;1.35;100;95296.64;;;;
2021/03/22 05:12:44;;;;;;;21.3;8.9;;;;;;;1.35;100;95296.64;;;;
2021/03/22 05:13:45;;;;;;;21.3;8.9;;;;;;;1.35;100;95296.64;;;;
2021/03/22 05:14:45;;;;;;;21.05;9.150001;;;;;;;1.37;100;95302.09;;;;
2021/03/22 05:15:46;;;;;;;21.05;9.150001;;;;;;;1.37;100;95302.09;;;;
2021/03/22 05:16:47;;;;;;;21.05;9.150001;;;;;;;1.37;100;95302.09;;;;
2021/03/22 05:17:48;;;;;;;21.05;9.150001;;;;;;;1.37;100;95302.09;;;;
2021/03/22 05:18:49;;;;;;;21.05;9.150001;;;;;;;1.37;100;95302.09;;;;
2021/03/22 05:19:49;;;;;;;21.05;9.150001;;;;;;;1.37;100;95302.09;;;;
2021/03/22 05:20:50;;;;;;;21.05;9.150001;;;;;;;1.37;100;95302.09;;;;
2021/03/22 05:21:54;;;;;;;21.05;9.150001;;;;;;;1.37;100;95302.09;;;;
2021/03/22 05:22:55;;;;;;;21.05;9.150001;;;;;;;1.37;100;95302.09;;;;
2021/03/22 05:23:57;;;;;;;21.05;9.150001;;;;;;;1.37;100;95302.09;;;;
2021/03/22 05:24:57;;;;;;;17.9;8.150002;;;;;;;1.38;100;95315.72;;;;
2021/03/22 05:25:58;;;;;;;17.9;8.150002;;;;;;;1.38;100;95315.72;;;;
2021/03/22 05:26:58;;;;;;;17.9;8.150002;;;;;;;1.38;100;95315.72;;;;
2021/03/22 05:27:59;;;;;;;17.9;8.150002;;;;;;;1.38;100;95315.72;;;;
2021/03/22 05:29:00;;;;;;;17.9;8.150002;;;;;;;1.38;100;95315.72;;;;
2021/03/22 05:30:01;;;;;;;17.9;8.150002;;;;;;;1.38;100;95315.72;;;;
2021/03/22 05:31:04;;;;;;;17.9;8.150002;;;;;;;1.38;100;95315.72;;;;
2021/03/22 05:32:05;;;;;;;17.9;8.150002;;;;;;;1.38;100;95315.72;;;;
2021/03/22 05:33:25;;;;;;;17.9;8.150002;;;;;;;1.38;100;95315.72;;;;
2021/03/22 05:34:26;;;;;;;17.9;8.150002;;;;;;;1.38;100;95315.72;;;;
2021/03/22 05:35:27;;;;;;;17.9;8.150002;;;;;;;1.38;100;95315.72;;;;
2021/03/22 05:36:28;;;;;;;23.2;8.1;;;;;;;1.4;100;95315.54;;;;
2021/03/22 05:37:29;;;;;;;23.2;8.1;;;;;;;1.4;100;95315.54;;;;
2021/03/22 05:38:30;;;;;;;23.2;8.1;;;;;;;1.4;100;95315.54;;;;
2021/03/22 05:39:30;;;;;;;23.2;8.1;;;;;;;1.4;100;95315.54;;;;
2021/03/22 05:40:31;;;;;;;23.2;8.1;;;;;;;1.4;100;95315.54;;;;
2021/03/22 05:41:35;;;;;;;23.2;8.1;;;;;;;1.4;100;95315.54;;;;
2021/03/22 05:42:43;;;;;;;23.2;8.1;;;;;;;1.4;100;95315.54;;;;
2021/03/22 05:43:56;;;;;;;23.2;8.1;;;;;;;1.4;100;95315.54;;;;
2021/03/22 05:45:07;;;;;;;23.2;8.1;;;;;;;1.4;100;95315.54;;;;
2021/03/22 05:46:44;;;;;;;14.85;8.1;;;;;;;1.46;100;95305;;;;
2021/03/22 05:47:53;;;;;;;14.85;8.1;;;;;;;1.46;100;95305;;;;
2021/03/22 05:49:01;;;;;;;14.85;8.1;;;;;;;1.46;100;95305;;;;
2021/03/22 05:50:15;;;;;;;14.85;8.1;;;;;;;1.46;100;95305;;;;
2021/03/22 05:51:20;;;;;;;14.85;8.1;;;;;;;1.46;100;95305;;;;
2021/03/22 05:52:33;;;;;;;14.85;8.1;;;;;;;1.46;100;95305;;;;
2021/03/22 05:53:49;;;;;;;14.85;8.1;;;;;;;1.46;100;95305;;;;
2021/03/22 05:54:58;;;;;;;14.85;8.1;;;;;;;1.46;100;95305;;;;
2021/03/22 05:56:06;;;;;;;14.85;8.1;;;;;;;1.46;100;95305;;;;
2021/03/22 05:57:14;;;;;;;19.2;7.45;;;;;;;1.48;100;95314.95;;;;
2021/03/22 05:58:22;;;;;;;19.2;7.45;;;;;;;1.48;100;95314.95;;;;
2021/03/22 06:01:54;;;;;;;19.2;7.45;;;;;;;1.48;100;95314.95;;;;
2021/03/22 06:03:01;;;;;;;19.2;7.45;;;;;;;1.48;100;95314.95;;;;
2021/03/22 06:04:05;;;;;;;19.2;7.45;;;;;;;1.48;100;95314.95;;;;
2021/03/22 06:05:17;;;;;;;19.2;7.45;;;;;;;1.48;100;95314.95;;;;
2021/03/22 06:06:35;;;;;;;19.2;7.45;;;;;;;1.48;100;95314.95;;;;
2021/03/22 06:07:41;;;;;;;23.4;7.8;;;;;;;1.6;100;95334.91;;;;
2021/03/22 06:08:45;;;;;;;23.4;7.8;;;;;;;1.6;100;95334.91;;;;
2021/03/22 06:09:52;;;;;;;23.4;7.8;;;;;;;1.6;100;95334.91;;;;
2021/03/22 06:10:59;;;;;;;23.4;7.8;;;;;;;1.6;100;95334.91;;;;
2021/03/22 06:12:05;;;;;;;23.4;7.8;;;;;;;1.6;100;95334.91;;;;
2021/03/22 06:13:20;;;;;;;23.4;7.8;;;;;;;1.6;100;95334.91;;;;